createdAt,value
2018-08-31T00:02:56.052Z,67.37
2018-08-31T00:05:43.177Z,68.03
2018-08-31T00:10:31.680Z,66.19
2018-08-31T00:13:00.477Z,62.78
2018-08-31T00:15:29.292Z,61.55
2018-08-31T00:17:58.174Z,61.68
2018-08-31T00:20:27.241Z,62.26
2018-08-31T00:22:56.099Z,62.50
2018-08-31T00:26:04.163Z,63.63
2018-08-31T00:29:11.833Z,65.19
2018-08-31T00:34:04.597Z,66.50
2018-08-31T00:37:41.995Z,67.23
2018-08-31T00:41:22.234Z,67.76
2018-08-31T00:44:10.148Z,67.29
2018-08-31T00:46:39.005Z,67.43
2018-08-31T00:49:08.108Z,67.62
2018-08-31T00:51:36.938Z,67.17
2018-08-31T00:54:06.069Z,67.48
2018-08-31T00:56:34.920Z,67.79
2018-08-31T00:59:03.724Z,67.87
2018-08-31T01:01:32.506Z,66.81
2018-08-31T01:04:01.434Z,67.62
2018-08-31T01:06:30.245Z,65.98
2018-08-31T01:08:59.047Z,65.26
2018-08-31T01:11:27.900Z,64.76
2018-08-31T01:13:56.746Z,65.05
2018-08-31T01:16:25.633Z,64.68
2018-08-31T01:18:54.442Z,65.75
2018-08-31T01:21:23.309Z,66.31
2018-08-31T01:23:52.108Z,66.32
2018-08-31T01:26:20.885Z,67.87
2018-08-31T01:28:49.741Z,69.48
2018-08-31T01:31:18.560Z,68.60
2018-08-31T01:33:47.369Z,68.21
2018-08-31T01:36:17.429Z,67.37
2018-08-31T01:38:46.324Z,66.81
2018-08-31T01:41:15.140Z,66.45
2018-08-31T01:43:44.007Z,66.53
2018-08-31T01:46:13.014Z,67.19
2018-08-31T01:48:41.815Z,67.17
2018-08-31T01:51:15.768Z,66.52
2018-08-31T01:53:44.578Z,67.23
2018-08-31T01:56:13.398Z,66.64
2018-08-31T01:58:42.291Z,66.95
2018-08-31T02:01:11.159Z,68.42
2018-08-31T02:03:39.966Z,70.51
2018-08-31T02:06:08.828Z,70.15
2018-08-31T02:08:41.685Z,70.08
2018-08-31T02:11:10.567Z,70.38
2018-08-31T02:13:39.436Z,70.06
2018-08-31T02:16:08.343Z,69.87
2018-08-31T02:18:37.399Z,70.44
2018-08-31T02:21:06.343Z,71.64
2018-08-31T02:23:35.298Z,71.44
2018-08-31T02:26:04.181Z,71.70
2018-08-31T02:28:33.005Z,71.46
2018-08-31T02:31:01.862Z,71.04
2018-08-31T02:33:30.671Z,70.70
2018-08-31T02:36:00.734Z,71.93
2018-08-31T02:38:29.530Z,71.66
2018-08-31T02:40:58.491Z,72.58
2018-08-31T02:43:28.742Z,72.36
2018-08-31T02:45:57.576Z,73.37
2018-08-31T02:48:26.509Z,73.26
2018-08-31T02:50:55.301Z,72.90
2018-08-31T02:53:24.170Z,72.47
2018-08-31T02:55:53.008Z,71.82
2018-08-31T02:58:21.847Z,71.98
2018-08-31T03:00:50.702Z,71.66
2018-08-31T03:03:19.498Z,71.84
2018-08-31T03:05:48.390Z,71.88
2018-08-31T03:08:17.357Z,71.10
2018-08-31T03:10:46.255Z,70.79
2018-08-31T03:13:15.091Z,71.55
2018-08-31T03:15:43.945Z,71.86
2018-08-31T03:18:12.750Z,72.48
2018-08-31T03:20:41.949Z,73.11
2018-08-31T03:23:10.777Z,73.08
2018-08-31T03:25:39.578Z,73.00
2018-08-31T03:28:08.419Z,73.06
2018-08-31T03:30:37.386Z,74.32
2018-08-31T03:33:06.497Z,74.94
2018-08-31T03:35:35.302Z,75.62
2018-08-31T03:38:05.605Z,74.81
2018-08-31T03:40:34.407Z,74.39
2018-08-31T03:43:03.292Z,73.58
2018-08-31T03:45:32.270Z,73.03
2018-08-31T03:48:01.091Z,72.98
2018-08-31T03:50:29.949Z,72.65
2018-08-31T03:52:58.762Z,72.46
2018-08-31T03:55:27.723Z,72.18
2018-08-31T03:57:56.566Z,71.73
2018-08-31T04:00:25.563Z,71.37
2018-08-31T04:02:54.381Z,70.73
2018-08-31T04:05:23.255Z,70.05
2018-08-31T04:07:52.043Z,70.42
2018-08-31T04:10:20.890Z,70.14
2018-08-31T04:12:49.683Z,69.71
2018-08-31T04:15:18.474Z,70.06
2018-08-31T04:17:47.430Z,70.58
2018-08-31T04:20:16.284Z,71.52
2018-08-31T04:22:45.120Z,71.05
2018-08-31T04:25:15.290Z,70.53
2018-08-31T04:27:44.107Z,71.20
2018-08-31T04:30:12.908Z,72.17
2018-08-31T04:32:43.087Z,71.29
2018-08-31T04:35:11.903Z,70.64
2018-08-31T04:37:40.810Z,70.21
2018-08-31T04:40:11.102Z,65.24
2018-08-31T04:42:39.940Z,65.52
2018-08-31T04:45:08.868Z,64.85
2018-08-31T04:47:37.737Z,65.05
2018-08-31T04:50:06.761Z,64.40
2018-08-31T04:52:35.590Z,63.57
2018-08-31T04:55:07.018Z,63.10
2018-08-31T04:57:35.841Z,63.08
2018-08-31T05:00:04.833Z,63.22
2018-08-31T05:02:33.688Z,62.39
2018-08-31T05:05:02.752Z,62.53
2018-08-31T05:07:31.568Z,62.58
2018-08-31T05:10:00.428Z,63.40
2018-08-31T05:12:30.525Z,62.69
2018-08-31T05:14:59.384Z,62.55
2018-08-31T05:17:28.301Z,62.40
2018-08-31T05:19:57.191Z,62.21
2018-08-31T05:22:26.168Z,62.90
2018-08-31T05:24:55.013Z,62.78
2018-08-31T05:27:23.861Z,62.69
2018-08-31T05:29:52.656Z,60.56
2018-08-31T05:32:21.530Z,59.68
2018-08-31T05:34:50.450Z,59.20
2018-08-31T05:37:19.217Z,57.89
2018-08-31T05:39:48.082Z,57.10
2018-08-31T05:42:17.081Z,56.69
2018-08-31T05:44:45.961Z,56.72
2018-08-31T05:47:16.021Z,57.65
2018-08-31T05:49:44.855Z,57.42
2018-08-31T05:52:13.684Z,57.27
2018-08-31T05:54:42.488Z,57.20
2018-08-31T05:57:11.359Z,56.72
2018-08-31T05:59:40.166Z,56.44
2018-08-31T06:02:09.000Z,56.47
2018-08-31T06:04:38.141Z,56.50
2018-08-31T06:07:07.782Z,56.10
2018-08-31T06:09:36.621Z,55.32
2018-08-31T06:12:05.585Z,54.25
2018-08-31T06:14:34.511Z,53.59
2018-08-31T06:17:04.787Z,53.17
2018-08-31T06:19:33.632Z,52.22
2018-08-31T06:22:02.520Z,51.71
2018-08-31T06:24:31.410Z,50.45
2018-08-31T06:27:00.342Z,50.74
2018-08-31T06:29:29.181Z,50.25
2018-08-31T06:31:58.064Z,49.79
2018-08-31T06:34:26.931Z,48.88
2018-08-31T06:36:55.778Z,48.26
2018-08-31T06:39:24.597Z,48.02
2018-08-31T06:41:55.121Z,48.29
2018-08-31T06:44:23.952Z,47.62
2018-08-31T06:46:52.845Z,47.15
2018-08-31T06:49:21.706Z,46.60
2018-08-31T06:51:50.559Z,46.24
2018-08-31T06:54:19.438Z,45.86
2018-08-31T06:56:48.441Z,45.90
2018-08-31T06:59:17.336Z,44.58
2018-08-31T07:01:46.178Z,44.50
2018-08-31T07:04:15.091Z,44.42
2018-08-31T07:06:43.948Z,42.95
2018-08-31T07:09:12.866Z,42.98
2018-08-31T07:11:41.800Z,42.95
2018-08-31T07:14:10.712Z,42.54
2018-08-31T07:16:39.684Z,42.04
2018-08-31T07:19:09.963Z,41.91
2018-08-31T07:21:38.837Z,41.52
2018-08-31T07:24:07.768Z,41.78
2018-08-31T07:26:36.686Z,41.91
2018-08-31T07:29:05.622Z,40.81
2018-08-31T07:31:34.454Z,39.82
2018-08-31T07:34:03.329Z,36.72
2018-08-31T07:36:32.134Z,36.75
2018-08-31T07:39:02.380Z,36.17
2018-08-31T07:41:32.637Z,36.41
2018-08-31T07:44:01.464Z,35.59
2018-08-31T07:46:30.281Z,35.25
2018-08-31T07:48:59.150Z,35.69
2018-08-31T07:51:27.973Z,35.92
2018-08-31T07:53:56.827Z,36.74
2018-08-31T07:56:25.685Z,36.58
2018-08-31T07:58:54.554Z,37.00
2018-08-31T08:01:23.353Z,36.60
2018-08-31T08:03:52.297Z,37.25
2018-08-31T08:06:21.127Z,37.00
2018-08-31T08:08:49.971Z,36.96
2018-08-31T08:11:20.387Z,36.58
2018-08-31T08:13:49.228Z,36.80
2018-08-31T08:16:18.052Z,36.58
2018-08-31T08:18:47.157Z,35.82
2018-08-31T08:21:17.402Z,36.09
2018-08-31T08:23:46.322Z,35.81
2018-08-31T08:26:15.154Z,36.93
2018-08-31T08:28:44.052Z,36.50
2018-08-31T08:31:12.983Z,36.02
2018-08-31T08:33:41.803Z,33.64
2018-08-31T08:36:11.923Z,34.49
2018-08-31T08:38:41.122Z,34.38
2018-08-31T08:41:09.966Z,35.39
2018-08-31T08:43:38.915Z,33.96
2018-08-31T08:46:07.865Z,34.52
2018-08-31T08:48:36.925Z,35.12
2018-08-31T08:51:05.660Z,34.69
2018-08-31T08:53:35.921Z,33.47
2018-08-31T08:56:04.819Z,32.94
2018-08-31T08:58:33.638Z,33.89
2018-08-31T09:01:02.569Z,33.42
2018-08-31T09:03:31.511Z,32.78
2018-08-31T09:06:00.383Z,32.11
2018-08-31T09:08:29.301Z,31.94
2018-08-31T09:10:58.159Z,32.42
2018-08-31T09:13:27.020Z,31.95
2018-08-31T09:15:55.952Z,32.41
2018-08-31T09:18:27.267Z,31.68
2018-08-31T09:20:57.145Z,31.63
2018-08-31T09:23:26.453Z,32.83
2018-08-31T09:25:56.772Z,33.49
2018-08-31T09:28:25.651Z,32.35
2018-08-31T09:30:54.518Z,33.11
2018-08-31T09:33:23.473Z,31.93
2018-08-31T09:35:52.540Z,33.11
2018-08-31T09:38:21.428Z,32.51
2018-08-31T09:40:50.307Z,33.45
2018-08-31T09:43:19.125Z,32.54
2018-08-31T09:45:47.921Z,31.85
2018-08-31T09:48:16.805Z,31.42
2018-08-31T09:50:45.612Z,31.11
2018-08-31T09:53:14.414Z,32.65
2018-08-31T09:55:44.558Z,33.50
2018-08-31T09:58:13.425Z,32.87
2018-08-31T10:00:47.446Z,32.97
2018-08-31T10:03:21.413Z,33.46
2018-08-31T10:05:50.605Z,31.26
2018-08-31T10:08:19.589Z,31.85
2018-08-31T10:10:48.607Z,32.41
2018-08-31T10:13:17.509Z,32.64
2018-08-31T10:15:46.405Z,31.99
2018-08-31T10:18:15.243Z,33.68
2018-08-31T10:20:44.105Z,33.84
2018-08-31T10:23:14.232Z,35.56
2018-08-31T10:25:43.089Z,35.48
2018-08-31T10:28:11.958Z,34.70
2018-08-31T10:30:40.833Z,34.37
2018-08-31T10:33:09.685Z,33.51
2018-08-31T10:35:38.536Z,34.49
2018-08-31T10:38:08.649Z,33.99
2018-08-31T10:40:37.465Z,33.60
2018-08-31T10:43:06.683Z,33.37
2018-08-31T10:45:35.562Z,33.52
2018-08-31T10:48:04.404Z,34.33
2018-08-31T10:50:33.210Z,35.24
2018-08-31T10:53:03.381Z,34.77
2018-08-31T10:55:32.210Z,33.54
2018-08-31T10:58:01.044Z,34.02
2018-08-31T11:00:29.920Z,33.57
2018-08-31T11:02:58.880Z,33.21
2018-08-31T11:05:27.704Z,33.64
2018-08-31T11:07:57.993Z,32.89
2018-08-31T11:10:26.854Z,31.56
2018-08-31T11:12:55.693Z,33.39
2018-08-31T11:15:24.577Z,33.66
2018-08-31T11:17:54.690Z,33.95
2018-08-31T11:20:23.550Z,32.42
2018-08-31T11:22:53.780Z,32.33
2018-08-31T11:25:22.674Z,31.68
2018-08-31T11:27:51.596Z,32.92
2018-08-31T11:30:20.491Z,32.73
2018-08-31T11:32:49.456Z,33.20
2018-08-31T11:35:19.621Z,32.18
2018-08-31T11:37:49.809Z,30.88
2018-08-31T11:40:19.895Z,30.82
2018-08-31T11:42:48.717Z,30.98
2018-08-31T11:45:19.015Z,30.93
2018-08-31T11:47:47.897Z,31.27
2018-08-31T11:50:16.717Z,31.48
2018-08-31T11:52:46.857Z,32.18
2018-08-31T11:55:15.795Z,32.56
2018-08-31T11:57:44.573Z,32.42
2018-08-31T12:00:13.523Z,32.24
2018-08-31T12:02:42.470Z,33.97
2018-08-31T12:05:11.388Z,33.13
2018-08-31T12:07:40.200Z,32.87
2018-08-31T12:10:10.312Z,34.47
2018-08-31T12:12:39.161Z,33.67
2018-08-31T12:15:08.033Z,34.61
2018-08-31T12:17:36.922Z,35.35
2018-08-31T12:20:05.978Z,35.55
2018-08-31T12:22:35.094Z,36.36
2018-08-31T12:25:04.093Z,35.23
2018-08-31T12:27:32.911Z,35.96
2018-08-31T12:30:01.950Z,36.57
2018-08-31T12:32:30.809Z,36.72
2018-08-31T12:35:00.922Z,36.84
2018-08-31T12:37:29.831Z,37.21
2018-08-31T12:39:58.745Z,36.65
2018-08-31T12:42:28.860Z,37.00
2018-08-31T12:44:57.694Z,36.50
2018-08-31T12:47:26.587Z,35.78
2018-08-31T12:49:56.772Z,35.50
2018-08-31T12:52:25.601Z,32.09
2018-08-31T12:54:54.402Z,31.45
2018-08-31T12:57:23.300Z,31.09
2018-08-31T12:59:58.443Z,30.46
2018-08-31T13:02:27.461Z,30.13
2018-08-31T13:04:56.405Z,29.30
2018-08-31T13:07:26.925Z,29.96
2018-08-31T13:09:55.862Z,30.52
2018-08-31T13:12:24.841Z,30.27
2018-08-31T13:14:53.737Z,30.01
2018-08-31T13:17:22.577Z,31.03
2018-08-31T13:19:51.672Z,31.36
2018-08-31T13:22:20.549Z,30.23
2018-08-31T13:24:49.376Z,30.69
2018-08-31T13:27:18.252Z,30.11
2018-08-31T13:29:47.176Z,29.67
2018-08-31T13:32:15.973Z,29.76
2018-08-31T13:34:44.857Z,27.83
2018-08-31T13:37:13.775Z,28.49
2018-08-31T13:39:42.676Z,28.38
2018-08-31T13:42:11.509Z,28.80
2018-08-31T13:44:40.392Z,29.09
2018-08-31T13:47:09.307Z,29.43
2018-08-31T13:49:38.216Z,29.73
2018-08-31T13:52:07.092Z,30.49
2018-08-31T13:54:36.068Z,31.92
2018-08-31T13:57:06.224Z,32.41
2018-08-31T13:59:35.086Z,31.82
2018-08-31T14:02:03.926Z,31.40
2018-08-31T14:04:32.804Z,30.59
2018-08-31T14:07:01.662Z,30.35
2018-08-31T14:09:30.530Z,29.71
2018-08-31T14:11:59.364Z,29.44
2018-08-31T14:14:28.210Z,29.17
2018-08-31T14:16:57.068Z,30.19
2018-08-31T14:19:26.038Z,29.77
2018-08-31T14:21:54.873Z,28.26
2018-08-31T14:24:23.694Z,28.54
2018-08-31T14:26:52.541Z,27.15
2018-08-31T14:29:21.378Z,26.61
2018-08-31T14:31:50.281Z,26.16
2018-08-31T14:34:19.105Z,26.31
2018-08-31T14:36:48.015Z,25.95
2018-08-31T14:39:16.854Z,25.03
2018-08-31T14:41:45.708Z,26.04
2018-08-31T14:44:14.610Z,24.35
2018-08-31T14:46:43.519Z,24.14
2018-08-31T14:49:12.326Z,24.68
2018-08-31T14:51:41.201Z,23.51
2018-08-31T14:54:10.092Z,23.74
2018-08-31T14:56:38.933Z,23.83
2018-08-31T14:59:07.845Z,24.82
2018-08-31T15:01:36.673Z,24.50
2018-08-31T15:04:05.589Z,24.74
2018-08-31T15:06:34.496Z,24.13
2018-08-31T15:09:03.598Z,24.06
2018-08-31T15:11:33.676Z,24.80
2018-08-31T15:14:02.529Z,24.32
2018-08-31T15:16:31.357Z,24.14
2018-08-31T15:19:00.236Z,23.71
2018-08-31T15:21:29.103Z,23.23
2018-08-31T15:23:57.952Z,23.39
2018-08-31T15:26:26.782Z,23.38
2018-08-31T15:28:57.293Z,23.55
2018-08-31T15:31:26.168Z,22.54
2018-08-31T15:33:55.012Z,22.81
2018-08-31T15:36:23.852Z,22.35
2018-08-31T15:38:52.697Z,22.70
2018-08-31T15:41:21.533Z,22.59
2018-08-31T15:43:50.424Z,23.31
2018-08-31T15:46:19.327Z,22.73
2018-08-31T15:48:48.189Z,23.40
2018-08-31T15:51:18.325Z,23.10
2018-08-31T15:53:47.295Z,23.97
2018-08-31T15:56:16.224Z,24.17
2018-08-31T15:58:45.097Z,25.16
2018-08-31T16:01:13.957Z,25.65
2018-08-31T16:03:42.820Z,25.94
2018-08-31T16:06:13.140Z,26.15
2018-08-31T16:08:41.981Z,26.80
2018-08-31T16:11:12.142Z,26.58
2018-08-31T16:13:41.093Z,27.69
2018-08-31T16:16:10.301Z,28.59
2018-08-31T16:18:39.197Z,28.82
2018-08-31T16:21:08.050Z,29.40
2018-08-31T16:23:36.934Z,30.60
2018-08-31T16:26:05.858Z,32.16
2018-08-31T16:28:34.709Z,33.40
2018-08-31T16:31:03.611Z,33.87
2018-08-31T16:33:32.701Z,34.24
2018-08-31T16:36:01.884Z,34.83
2018-08-31T16:38:30.999Z,35.50
2018-08-31T16:41:01.532Z,36.43
2018-08-31T16:43:30.409Z,36.63
2018-08-31T16:45:59.231Z,37.44
2018-08-31T16:48:29.341Z,38.35
2018-08-31T16:50:58.211Z,39.33
2018-08-31T16:53:27.075Z,39.06
2018-08-31T16:55:57.332Z,38.88
2018-08-31T16:58:26.240Z,39.07
2018-08-31T17:01:01.397Z,38.66
2018-08-31T17:03:30.261Z,39.11
2018-08-31T17:05:59.102Z,38.99
2018-08-31T17:08:28.304Z,39.84
2018-08-31T17:10:57.192Z,39.87
2018-08-31T17:13:26.052Z,39.97
2018-08-31T17:15:54.998Z,40.54
2018-08-31T17:18:23.982Z,40.75
2018-08-31T17:20:53.613Z,40.67
2018-08-31T17:23:22.557Z,41.19
2018-08-31T17:25:51.425Z,41.53
2018-08-31T17:28:25.424Z,42.46
2018-08-31T17:30:59.373Z,42.04
2018-08-31T17:34:35.626Z,42.64
2018-08-31T17:37:09.604Z,42.90
2018-08-31T17:39:38.484Z,42.95
2018-08-31T17:42:07.643Z,43.14
2018-08-31T17:44:36.541Z,43.16
2018-08-31T17:47:05.590Z,43.96
2018-08-31T17:49:34.496Z,44.70
2018-08-31T17:52:03.374Z,44.80
2018-08-31T17:54:32.253Z,45.18
2018-08-31T17:57:02.450Z,46.18
2018-08-31T17:59:31.328Z,46.86
2018-08-31T18:02:00.281Z,47.25
2018-08-31T18:04:30.656Z,47.64
2018-08-31T18:06:59.489Z,46.99
2018-08-31T18:09:28.431Z,48.17
2018-08-31T18:11:57.270Z,49.12
2018-08-31T18:14:26.277Z,49.73
2018-08-31T18:16:55.163Z,50.97
2018-08-31T18:19:24.042Z,51.16
2018-08-31T18:21:52.952Z,51.67
2018-08-31T18:24:21.853Z,52.27
2018-08-31T18:26:50.714Z,53.13
2018-08-31T18:29:19.622Z,53.87
2018-08-31T18:31:48.441Z,55.59
2018-08-31T18:34:17.249Z,55.73
2018-08-31T18:36:46.171Z,56.04
2018-08-31T18:39:15.001Z,57.17
2018-08-31T18:41:45.082Z,58.59
2018-08-31T18:44:13.954Z,60.05
2018-08-31T18:46:42.838Z,59.94
2018-08-31T18:49:13.382Z,60.43
2018-08-31T18:51:42.297Z,60.81
2018-08-31T18:54:12.040Z,60.90
2018-08-31T18:56:41.257Z,61.62
2018-08-31T18:59:10.209Z,61.92
2018-08-31T19:01:39.077Z,62.41
2018-08-31T19:04:07.942Z,62.10
2018-08-31T19:06:36.790Z,62.64
2018-08-31T19:09:07.110Z,62.33
2018-08-31T19:11:35.922Z,62.80
2018-08-31T19:14:05.118Z,64.05
2018-08-31T19:16:35.456Z,64.14
2018-08-31T19:19:04.409Z,64.50
2018-08-31T19:21:33.306Z,64.99
2018-08-31T19:24:02.221Z,64.99
2018-08-31T19:26:32.474Z,65.48
2018-08-31T19:29:02.281Z,65.54
2018-08-31T19:31:32.492Z,65.29
2018-08-31T19:34:01.443Z,65.37
2018-08-31T19:36:30.254Z,65.78
2018-08-31T19:38:59.205Z,66.01
2018-08-31T19:41:28.130Z,66.42
2018-08-31T19:43:57.030Z,66.59
2018-08-31T19:46:27.158Z,66.54
2018-08-31T19:48:56.069Z,66.75
2018-08-31T19:51:26.236Z,66.90
2018-08-31T19:53:55.151Z,67.18
2018-08-31T19:56:24.071Z,67.15
2018-08-31T19:58:54.408Z,67.14
2018-08-31T20:01:23.288Z,67.55
2018-08-31T20:03:52.153Z,67.82
2018-08-31T20:06:21.092Z,67.86
2018-08-31T20:08:51.011Z,67.98
2018-08-31T20:11:19.955Z,68.42
2018-08-31T20:13:48.845Z,68.96
2018-08-31T20:16:17.718Z,68.83
2018-08-31T20:18:47.797Z,68.46
2018-08-31T20:21:16.625Z,68.81
2018-08-31T20:23:45.537Z,69.35
2018-08-31T20:26:14.509Z,69.41
2018-08-31T20:28:43.430Z,69.09
2018-08-31T20:31:13.452Z,70.40
2018-08-31T20:33:43.620Z,70.05
2018-08-31T20:36:12.452Z,70.39
2018-08-31T20:38:41.374Z,70.84
2018-08-31T20:41:10.212Z,70.99
2018-08-31T20:43:39.033Z,71.78
2018-08-31T20:46:07.876Z,71.77
2018-08-31T20:48:36.761Z,71.37
2018-08-31T20:51:05.716Z,71.27
2018-08-31T20:53:34.562Z,71.63
2018-08-31T20:56:03.485Z,71.43
2018-08-31T20:58:32.399Z,70.90
2018-08-31T21:01:01.217Z,71.77
2018-08-31T21:03:30.150Z,71.70
2018-08-31T21:05:59.381Z,72.66
2018-08-31T21:08:28.290Z,71.24
2018-08-31T21:10:57.164Z,71.30
2018-08-31T21:13:26.017Z,71.93
2018-08-31T21:15:54.864Z,71.93
2018-08-31T21:18:23.699Z,71.70
2018-08-31T21:20:52.521Z,71.64
2018-08-31T21:23:21.397Z,72.64
2018-08-31T21:25:50.256Z,72.34
2018-08-31T21:28:19.079Z,72.25
2018-08-31T21:30:47.921Z,73.28
2018-08-31T21:33:18.053Z,73.37
2018-08-31T21:35:46.917Z,73.66
2018-08-31T21:38:15.788Z,73.27
2018-08-31T21:40:44.605Z,73.52
2018-08-31T21:43:13.593Z,73.62
2018-08-31T21:45:42.416Z,73.91
2018-08-31T21:48:11.305Z,74.84
2018-08-31T21:50:40.209Z,74.87
2018-08-31T21:53:09.302Z,74.09
2018-08-31T21:55:38.151Z,73.61
2018-08-31T21:58:08.525Z,73.48
2018-08-31T22:03:15.254Z,74.39
2018-08-31T22:05:47.637Z,73.64
2018-08-31T22:08:17.601Z,74.38
2018-08-31T22:10:46.572Z,74.79
2018-08-31T22:13:15.429Z,74.58
2018-08-31T22:15:44.246Z,74.31
2018-08-31T22:18:13.234Z,72.90
2018-08-31T22:20:42.173Z,72.31
2018-08-31T22:23:11.151Z,72.05
2018-08-31T22:25:40.044Z,71.94
2018-08-31T22:28:08.884Z,71.05
2018-08-31T22:30:37.802Z,71.12
2018-08-31T22:33:06.614Z,70.14
2018-08-31T22:35:36.873Z,71.12
2018-08-31T22:38:05.664Z,71.23
2018-08-31T22:40:34.674Z,70.68
2018-08-31T22:43:03.431Z,71.96
2018-08-31T22:45:32.254Z,72.56
2018-08-31T22:48:01.081Z,72.00
2018-08-31T22:50:29.895Z,71.91
2018-08-31T22:52:58.759Z,71.92
2018-08-31T22:55:27.642Z,71.50
2018-08-31T22:57:56.517Z,72.55
2018-08-31T23:00:26.844Z,73.18
2018-08-31T23:02:56.262Z,71.90
2018-08-31T23:05:25.122Z,71.49
2018-08-31T23:07:58.843Z,71.37
2018-08-31T23:10:27.768Z,71.27
2018-08-31T23:12:56.619Z,71.70
2018-08-31T23:15:25.438Z,71.56
2018-08-31T23:17:55.505Z,71.69
2018-08-31T23:20:24.359Z,71.11
2018-08-31T23:22:57.257Z,70.47
2018-08-31T23:25:31.066Z,69.31
2018-08-31T23:27:59.918Z,69.03
2018-08-31T23:30:28.697Z,69.34
2018-08-31T23:32:57.728Z,68.72
2018-08-31T23:35:26.561Z,68.88
2018-08-31T23:37:55.367Z,67.31
2018-08-31T23:40:24.230Z,67.32
2018-08-31T23:42:53.030Z,66.28
2018-08-31T23:45:21.855Z,66.78
2018-08-31T23:47:50.705Z,66.40
2018-08-31T23:50:19.624Z,66.06
2018-08-31T23:55:23.676Z,66.48
2018-08-31T23:57:52.497Z,66.69
